Flight Track Log - Related Links

Times and Time Zones

All times are in EDT time to prevent confusion due to time zone crossing. See the N6ZQ flight status page for this flight to view local times or setup timezone preferences in your user account.

Time Position Orientation Groundspeed Altitude Reporting Facility
EDT Latitude Longitude Course Direction KTS MPH feet Rate Location/Type
Wed 11:01:04 AM 17.1000 -62.5333 307° West 180 207 12,000  Level San Juan Center
Wed 11:02:00 AM 17.0444 -63.3758 307° West  Level Estimated
Wed 11:02:04 AM 17.1333 -62.5667 316° Northwest 190 219 12,000  Level San Juan Center
Wed 11:03:00 AM 17.0752 -63.4192 307° West  Level Estimated
Wed 11:03:04 AM 17.1833 -62.6000 328° Northwest 200 230 12,000  Level San Juan Center
Wed 11:04:00 AM 17.1061 -63.4626 307° West  Level Estimated
Wed 11:04:04 AM 17.2000 -62.6500 289° West 210 242 12,000  Level San Juan Center
Wed 11:05:00 AM 17.1369 -63.5060 307° West  Level Estimated
Wed 11:05:04 AM 17.2333 -62.7000 305° West 190 219 12,000  Level San Juan Center
Wed 11:06:00 AM 17.1677 -63.5495 307° West  Level Estimated
Wed 11:06:04 AM 17.2500 -62.7500 289° West 180 207 12,000  Level San Juan Center
Wed 11:07:04 AM 17.2667 -62.8167 285° West 190 219 12,000  Level San Juan Center
Wed 11:08:05 AM 17.2833 -62.8667 289° West 190 219 12,000  Level San Juan Center
Wed 11:09:04 AM 17.3000 -62.9167 289° West 190 219 12,000  Level San Juan Center
Wed 11:11:05 AM 17.3500 -63.0167 298° West 190 219 12,000  Level San Juan Center
Wed 11:12:05 AM 17.3500 -63.0667 270° West 190 219 12,000  Level San Juan Center
Wed 11:13:05 AM 17.3667 -63.1167 289° West 190 219 12,000  Level San Juan Center
Wed 11:14:05 AM 17.3833 -63.1833 285° West 190 219 12,000  Level San Juan Center
Wed 11:15:06 AM 17.4000 -63.2333 289° West 190 219 12,000  Level San Juan Center
Wed 11:16:05 AM 17.4000 -63.2833 270° West 190 219 12,000  Level San Juan Center
Wed 11:17:06 AM 17.4167 -63.3333 289° West 190 219 12,000  Level San Juan Center
Wed 11:18:06 AM 17.4333 -63.3833 289° West 180 207 12,000  Level San Juan Center
Wed 11:19:06 AM 17.4333 -63.4500 270° West 190 219 12,000  Level San Juan Center
Wed 11:20:06 AM 17.4500 -63.5000 289° West 190 219 12,000  Level San Juan Center
Wed 11:21:06 AM 17.4667 -63.5500 289° West 190 219 12,000  Level San Juan Center
Wed 11:22:06 AM 17.4833 -63.6000 289° West 190 219 12,000  Level San Juan Center
Wed 11:23:07 AM 17.5000 -63.6500 289° West 190 219 12,000  Level San Juan Center
Wed 11:24:06 AM 17.5167 -63.7000 289° West 190 219 12,000  Level San Juan Center
Wed 11:25:07 AM 17.5333 -63.7500 289° West 190 219 12,000  Level San Juan Center
Wed 11:26:07 AM 17.5500 -63.8000 289° West 190 219 12,000  Level San Juan Center
Wed 11:28:07 AM 17.5833 -63.9167 287° West 190 219 12,000  Level San Juan Center
Wed 11:29:07 AM 17.6000 -63.9667 289° West 190 219 12,000  Level San Juan Center
Wed 11:30:08 AM 17.6167 -64.0167 289° West 180 207 12,000  Level San Juan Center
Wed 11:31:08 AM 17.6167 -64.0667 270° West 190 219 12,000  Level San Juan Center
Wed 11:32:08 AM 17.6333 -64.1167 289° West 190 219 12,000  Level San Juan Center
Wed 11:33:08 AM 17.6500 -64.1667 289° West 190 219 12,000  Level San Juan Center
Wed 11:34:08 AM 17.6667 -64.2167 289° West 190 219 12,000  Level San Juan Center
Wed 11:35:08 AM 17.6833 -64.2667 289° West 180 207 12,000  Level San Juan Center
Wed 11:36:08 AM 17.7000 -64.3167 289° West 190 219 12,000  Level San Juan Center
Wed 11:37:08 AM 17.7167 -64.3833 285° West 180 207 12,000  Level San Juan Center
Wed 11:38:08 AM 17.7333 -64.4333 289° West 190 219 12,000  Level San Juan Center
Wed 11:39:09 AM 17.7500 -64.4833 289° West 180 207 12,000  Level San Juan Center
Wed 11:40:08 AM 17.7667 -64.5333 289° West 190 219 12,000  Level San Juan Center
Wed 11:41:09 AM 17.7833 -64.5833 289° West 180 207 12,000  Level San Juan Center
Wed 11:42:09 AM 17.8000 -64.6333 289° West 180 207 12,000  Level San Juan Center
Wed 11:43:09 AM 17.8000 -64.6833 270° West 180 207 12,000  Level San Juan Center
Wed 11:44:09 AM 17.8167 -64.7333 289° West 180 207 12,000  Level San Juan Center
Wed 11:45:09 AM 17.8333 -64.7833 289° West 180 207 12,000  Level San Juan Center
Wed 11:46:09 AM 17.8500 -64.8333 289° West 180 207 12,000  Level San Juan Center
Wed 11:47:10 AM 17.8667 -64.9000 285° West 180 207 12,000  Level San Juan Center
Wed 11:48:09 AM 17.8833 -64.9500 289° West 190 219 12,000  Level San Juan Center
Wed 11:49:10 AM 17.9000 -65.0000 289° West 190 219 12,000  Level San Juan Center
Wed 11:50:10 AM 17.9167 -65.0500 289° West 190 219 12,000  Level San Juan Center
Wed 11:51:10 AM 17.9333 -65.1000 289° West 180 207 12,000  Level San Juan Center
Wed 11:52:10 AM 17.9500 -65.1500 289° West 190 219 12,000  Level San Juan Center
Wed 11:53:10 AM 17.9667 -65.2167 285° West 190 219 12,000  Level San Juan Center
Wed 11:54:11 AM 17.9667 -65.2667 270° West 190 219 12,000  Level San Juan Center
Wed 11:55:11 AM 17.9833 -65.3167 289° West 190 219 12,000  Level San Juan Center
Wed 11:56:11 AM 18.0000 -65.3667 289° West 190 219 12,000  Level San Juan Center
Wed 11:57:11 AM 18.0167 -65.4167 289° West 190 219 12,000  Level San Juan Center
Wed 11:58:11 AM 18.0333 -65.4667 289° West 190 219 12,000  Level San Juan Center
Wed 11:59:11 AM 18.0500 -65.5333 285° West 190 219 12,000  Level San Juan Center
Wed 12:00:11 PM 18.0667 -65.5833 289° West 180 207 12,000  Level San Juan Center
Wed 12:01:11 PM 18.0833 -65.6333 289° West 190 219 12,000  Level San Juan Center
Wed 12:02:11 PM 18.1000 -65.6833 289° West 190 219 12,000  Level San Juan Center
Wed 12:03:12 PM 18.1000 -65.7333 270° West 190 219 12,000  Level San Juan Center
Wed 12:04:12 PM 18.1167 -65.7833 289° West 190 219 12,000  Level San Juan Center
Wed 12:05:12 PM 18.1333 -65.8333 289° West 190 219 12,000  Level San Juan Center
Wed 12:06:12 PM 18.1500 -65.9000 285° West 190 219 12,000  Level San Juan Center
Wed 12:07:12 PM 18.1667 -65.9500 289° West 190 219 12,000  Level San Juan Center
Wed 12:08:12 PM 18.1833 -66.0000 289° West 190 219 12,000  Level San Juan Center
Wed 12:09:12 PM 18.2000 -66.0500 289° West 190 219 12,000  Level San Juan Center
Wed 12:10:12 PM 18.2167 -66.1000 289° West 190 219 12,000  Level San Juan Center
Wed 12:11:13 PM 18.2333 -66.1667 285° West 190 219 12,000  Level San Juan Center
Wed 12:12:13 PM 18.2500 -66.2167 289° West 190 219 12,000  Level San Juan Center
Wed 12:13:13 PM 18.2667 -66.2667 289° West 190 219 12,000  Level San Juan Center
Wed 12:14:13 PM 18.2833 -66.3333 285° West 190 219 12,000  Level San Juan Center
Wed 12:15:13 PM 18.2833 -66.3833 270° West 190 219 12,000  Level San Juan Center
Wed 12:16:14 PM 18.3000 -66.4333 289° West 190 219 12,000  Level San Juan Center
Wed 12:17:13 PM 18.3167 -66.4833 289° West 190 219 12,000  Level San Juan Center
Wed 12:18:14 PM 18.3333 -66.5333 289° West 190 219 12,000  Level San Juan Center
Wed 12:19:14 PM 18.3500 -66.6000 285° West 190 219 12,000  Level San Juan Center
Wed 12:20:14 PM 18.3667 -66.6500 289° West 200 230 12,000  Level San Juan Center
Wed 12:21:14 PM 18.3833 -66.7000 289° West 190 219 12,000  Level San Juan Center
Wed 12:22:14 PM 18.4000 -66.7500 289° West 190 219 12,000  Level San Juan Center
Wed 12:23:14 PM 18.4167 -66.8167 285° West 190 219 12,000  Level San Juan Center
Wed 12:24:14 PM 18.4333 -66.8667 289° West 200 230 12,000  Level San Juan Center
Wed 12:25:14 PM 18.4333 -66.9167 270° West 200 230 12,000  Level San Juan Center
Wed 12:26:15 PM 18.4500 -66.9667 289° West 200 230 12,000  Level San Juan Center
Wed 12:27:15 PM 18.4667 -67.0333 285° West 180 207 12,000  Level San Juan Center
Wed 12:28:15 PM 18.4833 -67.0833 289° West 200 230 12,000  Level San Juan Center
Wed 12:29:15 PM 18.5167 -67.1333 305° West 200 230 12,000  Level San Juan Center
Wed 12:30:15 PM 18.5667 -67.1833 317° Northwest 190 219 12,000  Level San Juan Center
Wed 12:31:15 PM 18.6000 -67.2167 317° Northwest 200 230 12,000  Level San Juan Center
Wed 12:32:15 PM 18.6333 -67.2667 305° West 190 219 12,000  Level San Juan Center
Wed 12:33:16 PM 18.6667 -67.3000 317° Northwest 190 219 12,000  Level San Juan Center
Wed 12:34:16 PM 18.7167 -67.3500 317° Northwest 190 219 12,000  Level San Juan Center
Wed 12:35:16 PM 18.7500 -67.3833 317° Northwest 190 219 12,000  Level San Juan Center
Wed 12:36:16 PM 18.7833 -67.4333 305° West 200 230 12,000  Level San Juan Center
Wed 12:37:16 PM 18.8333 -67.4833 317° Northwest 200 230 12,000  Level San Juan Center
Wed 12:38:16 PM 18.8500 -67.5167 298° West 200 230 12,000  Level San Juan Center
Wed 12:39:16 PM 18.9000 -67.5500 328° Northwest 200 230 12,000  Level San Juan Center
Wed 12:40:16 PM 18.9333 -67.6000 305° West 200 230 12,000  Level San Juan Center
Wed 12:41:17 PM 18.9667 -67.6500 305° West 200 230 12,000  Level San Juan Center
Wed 12:42:17 PM 19.0167 -67.6833 328° Northwest 200 230 12,000  Level San Juan Center
Wed 12:43:17 PM 19.0500 -67.7333 305° West 200 230 12,000  Level San Juan Center
Wed 12:44:17 PM 19.0833 -67.7667 317° Northwest 200 230 12,000  Level San Juan Center
Wed 12:45:17 PM 19.1333 -67.8167 317° Northwest 200 230 12,000  Level San Juan Center
Wed 12:46:17 PM 19.1667 -67.8500 317° Northwest 190 219 12,000  Level San Juan Center
Wed 12:47:17 PM 19.2000 -67.9000 305° West 200 230 12,000  Level San Juan Center
Wed 12:48:17 PM 19.2333 -67.9500 305° West 200 230 12,000  Level San Juan Center
Wed 12:49:17 PM 19.2667 -67.9833 317° Northwest 200 230 12,000  Level San Juan Center
Wed 12:50:18 PM 19.3167 -68.0333 317° Northwest 210 242 12,000  Level San Juan Center
Wed 12:51:18 PM 19.3500 -68.0667 317° Northwest 200 230 12,000  Level San Juan Center
Wed 12:52:18 PM 19.3833 -68.1167 305° West 200 230 12,000  Level San Juan Center
Wed 12:53:18 PM 19.4333 -68.1500 328° Northwest 200 230 12,000  Level San Juan Center
Wed 12:54:18 PM 19.4667 -68.2000 305° West 190 219 12,000  Level San Juan Center
Wed 12:55:18 PM 19.5000 -68.2500 305° West 200 230 12,000  Level San Juan Center
Wed 12:56:18 PM 19.5333 -68.2833 317° Northwest 200 230 12,000 -50 Level San Juan Center
Wed 12:57:18 PM 19.5833 -68.3333 317° Northwest 200 230 11,900 -50 Descending San Juan Center
Wed 12:58:18 PM 19.6167 -68.3667 317° Northwest 190 219 11,900  Level San Juan Center
Wed 12:59:19 PM 19.6500 -68.4167 305° West 190 219 11,900 50 Level San Juan Center
Wed 01:00:18 PM 19.6833 -68.4500 317° Northwest 200 230 12,000  Climbing San Juan Center
Wed 01:01:19 PM 19.7167 -68.4833 317° Northwest 190 219 11,900 -50 Descending San Juan Center
Wed 01:02:19 PM 19.7500 -68.5333 305° West 190 219 11,900  Level San Juan Center
Wed 01:03:19 PM 19.8000 -68.5833 317° Northwest 190 219 11,900  Level San Juan Center
Wed 01:04:19 PM 19.8333 -68.6167 317° Northwest 190 219 11,900  Level San Juan Center
Wed 01:05:20 PM 19.8667 -68.6667 305° West 190 219 11,900  Level San Juan Center
Wed 01:06:19 PM 19.9000 -68.7167 305° West 190 219 11,900 18 Level San Juan Center
Wed 01:10:49 PM 20.0600 -68.9256 309° West 201 231 12,000 18 Climbing Miami Center
Wed 01:11:49 PM 20.0914 -68.9722 306° West 201 231 12,000  Level Miami Center
Wed 01:12:49 PM 20.1233 -69.0256 303° West 196 226 12,000  Level Miami Center
Wed 01:13:49 PM 20.1544 -69.0658 309° West 196 226 12,000  Level Miami Center
Wed 01:14:49 PM 20.1839 -69.1147 303° West 201 231 12,000  Level Miami Center
Wed 01:15:49 PM 20.2156 -69.1639 304° West 201 231 12,000  Level Miami Center
Wed 01:16:49 PM 20.2450 -69.2106 304° West 201 231 12,000  Level Miami Center
Wed 01:17:49 PM 20.2767 -69.2619 303° West 201 231 12,000  Level Miami Center
Wed 01:18:49 PM 20.3058 -69.3089 304° West 206 237 12,000  Level Miami Center
Wed 01:19:49 PM 20.3353 -69.3581 303° West 206 237 12,000  Level Miami Center
Wed 01:20:49 PM 20.3689 -69.4047 308° West 206 237 12,000  Level Miami Center
Wed 01:21:49 PM 20.4003 -69.4561 303° West 206 237 12,000  Level Miami Center
Wed 01:22:49 PM 20.4297 -69.5031 304° West 206 237 12,000  Level Miami Center
Wed 01:23:49 PM 20.4611 -69.5522 304° West 206 237 12,000  Level Miami Center
Wed 01:24:49 PM 20.4928 -69.6014 305° West 206 237 12,000  Level Miami Center
Wed 01:25:49 PM 20.5242 -69.6506 304° West 206 237 12,000  Level Miami Center
Wed 01:26:49 PM 20.5533 -69.6978 303° West 206 237 12,000  Level Miami Center
Wed 01:27:49 PM 20.5828 -69.7492 301° West 206 237 12,000  Level Miami Center
Wed 01:28:49 PM 20.6142 -69.7961 306° West 206 237 12,000  Level Miami Center
Wed 01:29:49 PM 20.6394 -69.8481 297° West 200 230 12,000  Level Miami Center
Wed 01:30:49 PM 20.6567 -69.9047 288° West 200 230 12,000 -50 Level Miami Center
Wed 01:31:49 PM 20.6778 -69.9589 293° West 200 230 11,900  Descending Miami Center
Wed 01:32:49 PM 20.6928 -70.0158 286° West 200 230 12,000 50 Climbing Miami Center
Wed 01:33:49 PM 20.7117 -70.0703 290° West 200 230 12,000  Level Miami Center
Wed 01:34:49 PM 20.7308 -70.1247 291° West 200 230 12,000  Level Miami Center
Wed 01:35:49 PM 20.7478 -70.1814 288° West 200 230 12,000  Level Miami Center
Wed 01:36:49 PM 20.7647 -70.2358 288° West 200 230 12,000  Level Miami Center
Wed 01:37:49 PM 20.7839 -70.2903 291° West 200 230 12,000  Level Miami Center
Wed 01:38:49 PM 20.8028 -70.3472 290° West 200 230 12,000  Level Miami Center
Wed 01:39:49 PM 20.8219 -70.4039 290° West 200 230 12,000  Level Miami Center
Wed 01:40:49 PM 20.8411 -70.4650 289° West 200 230 12,000  Level Miami Center
Wed 01:41:49 PM 20.8581 -70.5197 288° West 200 230 12,000  Level Miami Center
Wed 01:42:49 PM 20.8769 -70.5742 290° West 200 230 12,000  Level Miami Center
Wed 01:43:49 PM 20.8936 -70.6289 288° West 200 230 12,000  Level Miami Center
Wed 01:44:49 PM 20.9125 -70.6833 290° West 200 230 12,000  Level Miami Center
Wed 01:45:49 PM 20.9314 -70.7403 290° West 200 230 12,000  Level Miami Center
Wed 01:46:49 PM 20.9481 -70.7928 289° West 200 230 12,000  Level Miami Center
Wed 01:47:49 PM 20.9647 -70.8453 289° West 200 230 12,000  Level Miami Center
Wed 01:48:49 PM 20.9814 -70.8978 289° West 195 224 12,000  Level Miami Center
Wed 01:49:49 PM 20.9981 -70.9525 288° West 195 224 12,000  Level Miami Center
Wed 01:50:49 PM 21.0147 -71.0031 289° West 195 224 12,000  Level Miami Center
Wed 01:51:49 PM 21.0356 -71.0575 292° West 190 219 12,000 -50 Level Miami Center
Wed 01:52:49 PM 21.0500 -71.1125 286° West 190 219 11,900  Descending Miami Center
Wed 01:53:49 PM 21.0686 -71.1650 291° West 190 219 12,000 50 Climbing Miami Center
Wed 01:54:49 PM 21.0875 -71.2197 290° West 190 219 12,000  Level Miami Center
Wed 01:55:49 PM 21.1061 -71.2744 290° West 190 219 12,000  Level Miami Center
Wed 01:56:49 PM 21.1228 -71.3294 288° West 190 219 12,000  Level Miami Center
Wed 01:57:49 PM 21.1392 -71.3822 288° West 190 219 12,000  Level Miami Center
Wed 01:58:49 PM 21.1578 -71.4392 289° West 190 219 12,000  Level Miami Center
Wed 01:59:49 PM 21.1764 -71.4894 292° West 190 219 12,000  Level Miami Center
Wed 02:00:49 PM 21.1928 -71.5444 288° West 190 219 12,000  Level Miami Center
Wed 02:01:49 PM 21.2092 -71.5994 288° West 195 224 12,000  Level Miami Center
Wed 02:02:49 PM 21.2278 -71.6544 290° West 195 224 12,000  Level Miami Center
Wed 02:03:49 PM 21.2442 -71.7028 290° West 195 224 12,000  Level Miami Center
Wed 02:04:49 PM 21.2625 -71.7553 291° West 195 224 12,000  Level Miami Center
Wed 02:05:49 PM 21.2831 -71.8081 293° West 195 224 12,000  Level Miami Center
Wed 02:06:49 PM 21.3056 -71.8628 294° West 195 224 12,000  Level Miami Center
Wed 02:07:49 PM 21.3303 -71.9131 298° West 195 224 12,000  Level Miami Center
Wed 02:08:49 PM 21.3364 -71.9708 276° West 189 217 12,000  Level Miami Center
Wed 02:09:49 PM 21.3400 -72.0264 274° West 189 217 12,000 -50 Level Miami Center
Wed 02:10:49 PM 21.3461 -72.0861 276° West 196 226 11,900  Descending Miami Center
Wed 02:11:49 PM 21.3500 -72.1417 274° West 196 226 12,000 50 Climbing Miami Center
Wed 02:12:49 PM 21.3539 -72.2017 274° West 196 226 12,000  Level Miami Center
Wed 02:13:49 PM 21.3597 -72.2594 276° West 196 226 12,000  Level Miami Center
Wed 02:14:49 PM 21.3636 -72.3150 274° West 196 226 12,000  Level Miami Center
Wed 02:15:49 PM 21.3694 -72.3750 276° West 196 226 12,000  Level Miami Center
Wed 02:17:01 PM 21.3731 -72.4306 274° West 196 226 12,000  Level Miami Center
Wed 02:18:01 PM 21.3794 -72.4994 276° West 196 226 12,000  Level Miami Center
Wed 02:19:01 PM 21.3850 -72.5550 276° West 196 226 12,000  Level Miami Center
Wed 02:20:01 PM 21.3908 -72.6103 276° West 196 226 12,000  Level Miami Center
Wed 02:21:01 PM 21.4006 -72.6658 281° West 196 226 12,000  Level Miami Center
Wed 02:22:01 PM 21.4208 -72.7186 292° West 196 226 12,000  Level Miami Center
Wed 02:23:01 PM 21.4431 -72.7669 296° West 191 220 12,000  Level Miami Center
Wed 02:24:01 PM 21.4653 -72.8153 296° West 191 220 12,000  Level Miami Center
Wed 02:25:01 PM 21.4853 -72.8661 293° West 191 220 12,000  Level Miami Center
Wed 02:26:01 PM 21.5033 -72.9144 292° West 191 220 12,000  Level Miami Center
Wed 02:27:01 PM 21.5336 -72.9606 305° West 186 214 12,000  Level Miami Center
Wed 02:28:01 PM 21.5456 -73.0136 284° West 186 214 12,000  Level Miami Center
Wed 02:29:01 PM 21.5572 -73.0692 283° West 186 214 12,000  Level Miami Center
Wed 02:30:01 PM 21.5608 -73.1247 274° West 191 220 12,000  Level Miami Center
Wed 02:31:01 PM 21.5725 -73.1781 283° West 191 220 12,000  Level Miami Center
Wed 02:32:01 PM 21.5800 -73.2314 279° West 191 220 12,000  Level Miami Center
Wed 02:33:01 PM 21.5875 -73.2825 279° West 185 213 12,000  Level Miami Center
Wed 02:34:25 PM 21.5972 -73.3447 280° West 178 205 12,000  Level Miami Center
Wed 02:35:25 PM 21.6278 -73.3997 301° West 178 205 12,000 -50 Level Miami Center
Wed 02:36:25 PM 21.6581 -73.4436 307° West 183 211 11,900  Descending Miami Center
Wed 02:37:25 PM 21.6881 -73.4831 309° West 183 211 12,000 50 Climbing Miami Center
Wed 02:38:25 PM 21.7161 -73.5292 303° West 183 211 12,000 -50 Level Miami Center
Wed 02:39:25 PM 21.7506 -73.5753 309° West 188 216 11,900 -50 Descending Miami Center
Wed 02:40:25 PM 21.7808 -73.6194 306° West 188 216 11,900 50 Level Miami Center
Wed 02:41:25 PM 21.8131 -73.6633 308° West 193 222 12,000 50 Climbing Miami Center
Wed 02:42:25 PM 21.8411 -73.7072 305° West 188 216 12,000  Level Miami Center
Wed 02:43:25 PM 21.8778 -73.7625 306° West 193 222 12,000  Level Miami Center
Wed 02:44:25 PM 21.9058 -73.8086 303° West 193 222 12,000  Level Miami Center
Wed 02:45:25 PM 21.9319 -73.8597 299° West 193 222 12,000  Level Miami Center
Wed 02:46:25 PM 21.9558 -73.9083 298° West 193 222 12,000 -50 Level Miami Center
Wed 02:47:25 PM 21.9836 -73.9503 306° West 182 209 11,900  Descending Miami Center
Wed 02:48:25 PM 22.0075 -73.9967 299° West 177 204 12,000  Climbing Miami Center
Wed 02:49:25 PM 22.0397 -74.0364 311° West 177 204 11,900 -50 Descending Miami Center
Wed 02:50:25 PM 22.0739 -74.0758 313° West 186 214 11,900  Level Miami Center
Wed 02:51:25 PM 22.1181 -74.1042 329° Northwest 186 214 11,900 50 Level Miami Center
Wed 02:52:25 PM 22.1606 -74.1392 323° Northwest 181 208 12,000 50 Climbing Miami Center
Wed 02:53:25 PM 22.2050 -74.1694 328° Northwest 186 214 12,000  Level Miami Center
Wed 02:54:25 PM 22.2494 -74.2022 326° Northwest 186 214 12,000  Level Miami Center
Wed 02:55:25 PM 22.2897 -74.2397 319° Northwest 192 221 12,000  Level Miami Center
Wed 02:56:25 PM 22.3322 -74.2769 321° Northwest 192 221 12,000 -50 Level Miami Center
Wed 02:57:25 PM 22.3767 -74.3119 324° Northwest 192 221 11,900  Descending Miami Center
Wed 02:58:25 PM 22.4147 -74.3539 314° West 192 221 12,000  Climbing Miami Center
Wed 02:59:25 PM 22.4531 -74.3958 315° West 187 215 11,900  Descending Miami Center
Wed 03:00:25 PM 22.4933 -74.4333 319° Northwest 192 221 12,000 50 Climbing Miami Center
Wed 03:01:25 PM 22.5297 -74.4778 312° West 197 227 12,000 -50 Level Miami Center
Wed 03:02:25 PM 22.5678 -74.5197 314° West 197 227 11,900 -50 Descending Miami Center
Wed 03:03:25 PM 22.6061 -74.5594 316° Northwest 191 220 11,900 50 Level Miami Center
Wed 03:04:25 PM 22.6444 -74.6039 313° West 191 220 12,000 50 Climbing Miami Center
Wed 03:05:25 PM 22.6847 -74.6458 316° Northwest 196 226 12,000 -50 Level Miami Center
Wed 03:06:25 PM 22.7228 -74.6881 314° West 196 226 11,900  Descending Miami Center
Wed 03:07:25 PM 22.7633 -74.7325 315° West 201 231 12,000 50 Climbing Miami Center
Wed 03:08:25 PM 22.8036 -74.7744 316° Northwest 201 231 12,000 -50 Level Miami Center
Wed 03:09:25 PM 22.8375 -74.8122 314° West 201 231 11,900  Descending Miami Center
Wed 03:10:25 PM 22.8778 -74.8567 315° West 201 231 12,000  Climbing Miami Center
Wed 03:11:25 PM 22.9181 -74.8989 316° Northwest 201 231 11,900  Descending Miami Center
Wed 03:12:25 PM 22.9561 -74.9414 314° West 201 231 12,000 50 Climbing Miami Center
Wed 03:13:25 PM 22.9964 -74.9858 315° West 201 231 12,000  Level Miami Center
Wed 03:14:25 PM 23.0367 -75.0281 316° Northwest 201 231 12,000  Level Miami Center
Wed 03:15:25 PM 23.0747 -75.0706 314° West 196 226 12,000  Level Miami Center
Wed 03:16:25 PM 23.1150 -75.1128 316° Northwest 196 226 12,000  Level Miami Center
Wed 03:17:25 PM 23.1531 -75.1575 313° West 196 226 12,000  Level Miami Center
Wed 03:18:25 PM 23.1933 -75.1978 317° Northwest 196 226 12,000  Level Miami Center
Wed 03:19:25 PM 23.2333 -75.2422 314° West 196 226 12,000  Level Miami Center
Wed 03:20:25 PM 23.2714 -75.2847 314° West 196 226 12,000  Level Miami Center
Wed 03:21:25 PM 23.3094 -75.3250 316° Northwest 196 226 12,000  Level Miami Center
Wed 03:22:25 PM 23.3475 -75.3700 313° West 196 226 12,000  Level Miami Center
Wed 03:23:25 PM 23.3878 -75.4125 316° Northwest 196 226 12,000 -50 Level Miami Center
Wed 03:24:25 PM 23.4278 -75.4550 316° Northwest 196 226 11,900 -50 Descending Miami Center
Wed 03:25:25 PM 23.4658 -75.4953 316° Northwest 196 226 11,900 50 Level Miami Center
Wed 03:26:25 PM 23.5058 -75.5425 313° West 196 226 12,000  Climbing Miami Center
Wed 03:27:25 PM 23.5417 -75.5853 312° West 196 226 11,900  Descending Miami Center
Wed 03:28:25 PM 23.5819 -75.6347 312° West 196 226 12,000 50 Climbing Miami Center
Wed 03:29:25 PM 23.6178 -75.6797 311° West 196 226 12,000  Level Miami Center
Wed 03:30:25 PM 23.6517 -75.7225 311° West 191 220 12,000  Level Miami Center
Wed 03:31:25 PM 23.6875 -75.7675 311° West 191 220 12,000  Level Miami Center
Wed 03:32:25 PM 23.7233 -75.8103 312° West 191 220 12,000  Level Miami Center
Wed 03:33:25 PM 23.7592 -75.8553 311° West 191 220 12,000  Level Miami Center
Wed 03:34:25 PM 23.7950 -75.8983 312° West 191 220 12,000  Level Miami Center
Wed 03:35:25 PM 23.8308 -75.9411 312° West 191 220 12,000  Level Miami Center
Wed 03:36:25 PM 23.8686 -75.9842 314° West 191 220 12,000  Level Miami Center
Wed 03:37:25 PM 23.9064 -76.0247 316° Northwest 191 220 12,000  Level Miami Center
Wed 03:38:25 PM 23.9442 -76.0675 314° West 191 220 12,000  Level Miami Center
Wed 03:39:25 PM 23.9842 -76.1106 315° West 191 220 12,000  Level Miami Center
Wed 03:40:37 PM 24.0283 -76.1603 314° West 191 220 12,000  Level Miami Center
Wed 03:41:37 PM 24.0683 -76.2056 314° West 191 220 12,000  Level Miami Center
Wed 03:42:37 PM 24.1061 -76.2486 314° West 196 226 12,000  Level Miami Center
Wed 03:43:37 PM 24.1481 -76.2894 318° Northwest 196 226 12,000  Level Miami Center
Wed 03:44:37 PM 24.1858 -76.3350 312° West 196 226 12,000  Level Miami Center
Wed 03:45:37 PM 24.2236 -76.3781 314° West 196 226 12,000  Level Miami Center
Wed 03:46:37 PM 24.2614 -76.4211 314° West 196 226 12,000  Level Miami Center
Wed 03:47:37 PM 24.3033 -76.4644 317° Northwest 196 226 12,000  Level Miami Center
Wed 03:48:37 PM 24.3411 -76.5075 314° West 201 231 12,000  Level Miami Center
Wed 03:49:37 PM 24.3786 -76.5531 312° West 201 231 12,000  Level Miami Center
Wed 03:50:37 PM 24.4186 -76.5942 317° Northwest 201 231 12,000  Level Miami Center
Wed 03:51:37 PM 24.4603 -76.6372 317° Northwest 201 231 12,000  Level Miami Center
Wed 03:52:37 PM 24.4939 -76.6831 309° West 196 226 12,000  Level Miami Center
Wed 03:53:37 PM 24.5378 -76.7264 318° Northwest 196 226 12,000  Level Miami Center
Wed 03:54:37 PM 24.5756 -76.7719 312° West 196 226 12,000  Level Miami Center
Wed 03:55:37 PM 24.6111 -76.8108 315° West 196 226 12,000  Level Miami Center
Wed 03:56:37 PM 24.6486 -76.8542 314° West 196 226 12,000  Level Miami Center
Wed 03:57:37 PM 24.6883 -76.9000 314° West 196 226 12,000  Level Miami Center
Wed 03:58:37 PM 24.7258 -76.9433 314° West 196 226 12,000  Level Miami Center
Wed 03:59:37 PM 24.7656 -76.9869 315° West 196 226 12,000  Level Miami Center
Wed 04:00:37 PM 24.8053 -77.0306 315° West 196 226 12,000  Level Miami Center
Wed 04:01:37 PM 24.8450 -77.0764 314° West 196 226 12,000  Level Miami Center
Wed 04:02:37 PM 24.8847 -77.1200 315° West 196 226 12,000  Level Miami Center
Wed 04:03:37 PM 24.9242 -77.1658 314° West 196 226 12,000  Level Miami Center
Wed 04:04:37 PM 24.9658 -77.2094 317° Northwest 196 226 12,000  Level Miami Center
Wed 04:05:37 PM 25.0056 -77.2556 314° West 201 231 12,000  Level Miami Center
Wed 04:06:37 PM 25.0450 -77.3014 314° West 201 231 12,000  Level Miami Center
Wed 04:07:37 PM 25.0867 -77.3475 315° West 201 231 12,000  Level Miami Center
Wed 04:08:37 PM 25.1264 -77.3936 314° West 201 231 12,000  Level Miami Center
Wed 04:09:37 PM 25.1658 -77.4397 313° West 201 231 12,000  Level Miami Center
Wed 04:10:37 PM 25.2117 -77.4906 315° West 206 237 12,000  Level Miami Center
Wed 04:11:37 PM 25.2511 -77.5367 313° West 206 237 12,000  Level Miami Center
Wed 04:12:37 PM 25.2906 -77.5828 313° West 211 243 12,000  Level Miami Center
Wed 04:13:37 PM 25.3322 -77.6314 313° West 211 243 12,000  Level Miami Center
Wed 04:14:37 PM 25.3717 -77.6775 313° West 211 243 12,000  Level Miami Center
Wed 04:15:37 PM 25.4131 -77.7239 315° West 211 243 12,000  Level Miami Center
Wed 04:16:37 PM 25.4547 -77.7725 314° West 211 243 12,000  Level Miami Center
Wed 04:17:37 PM 25.4961 -77.8189 315° West 211 243 12,000  Level Miami Center
Wed 04:18:37 PM 25.5250 -77.8814 297° West 218 251 12,000  Level Miami Center
Wed 04:19:37 PM 25.5769 -77.9139 331° Northwest 213 245 12,000  Level Miami Center
Wed 04:20:37 PM 25.6186 -77.9606 315° West 213 245 12,000  Level Miami Center
Wed 04:21:37 PM 25.6619 -78.0022 319° Northwest 213 245 12,000  Level Miami Center
Wed 04:22:37 PM 25.6992 -78.0533 309° West 213 245 12,000  Level Miami Center
Wed 04:23:37 PM 25.7386 -78.1022 312° West 213 245 12,000  Level Miami Center
Wed 04:24:37 PM 25.7819 -78.1467 317° Northwest 213 245 12,000  Level Miami Center
Wed 04:25:37 PM 25.8214 -78.1956 312° West 213 245 12,000  Level Miami Center
Wed 04:26:37 PM 25.8628 -78.2419 315° West 213 245 12,000  Level Miami Center
Wed 04:27:37 PM 25.9039 -78.2886 314° West 213 245 12,000  Level Miami Center
Wed 04:28:37 PM 25.9453 -78.3331 316° Northwest 213 245 12,000  Level Miami Center
Wed 04:29:37 PM 25.9825 -78.3892 306° West 213 245 12,000  Level Miami Center
Wed 04:30:37 PM 26.0258 -78.4358 316° Northwest 213 245 12,000  Level Miami Center
Wed 04:31:37 PM 26.0669 -78.4828 314° West 213 245 12,000  Level Miami Center
Wed 04:32:37 PM 26.1083 -78.5294 315° West 213 245 12,000  Level Miami Center
Wed 04:33:37 PM 26.1475 -78.5786 312° West 213 245 12,000  Level Miami Center
Wed 04:34:37 PM 26.1886 -78.6278 313° West 213 245 12,000  Level Miami Center
Wed 04:35:37 PM 26.2342 -78.6750 317° Northwest 213 245 12,000  Level Miami Center
Wed 04:36:37 PM 26.2731 -78.7242 311° West 213 245 12,000  Level Miami Center
Wed 04:37:37 PM 26.3144 -78.7711 315° West 213 245 12,000  Level Miami Center
Wed 04:38:37 PM 26.3575 -78.8206 314° West 213 245 12,000  Level Miami Center
Wed 04:39:37 PM 26.3967 -78.8700 311° West 216 249 12,000 -50 Level Miami Center
Wed 04:40:37 PM 26.4378 -78.9169 314° West 216 249 11,900 -300 Descending Miami Center
Wed 04:41:37 PM 26.4808 -78.9664 314° West 216 249 11,400 -450 Descending Miami Center
Wed 04:42:37 PM 26.5197 -79.0183 310° West 221 254 11,000 -400 Descending Miami Center
Wed 04:43:37 PM 26.5753 -79.0797 315° West 233 268 10,600 -450 Descending Miami Center
Wed 04:44:37 PM 26.6161 -79.1317 311° West 238 274 10,100 -300 Descending Miami Center
Wed 04:45:37 PM 26.6633 -79.1861 314° West 238 274 10,000 -50 Descending Miami Center
Wed 04:46:37 PM 26.7044 -79.2333 314° West 233 268 10,000  Level Miami Center
Wed 04:47:37 PM 26.7475 -79.2853 313° West 233 268 10,000  Level Miami Center
Wed 04:48:37 PM 26.7925 -79.3375 314° West 233 268 10,000  Level Miami Center
Wed 04:49:37 PM 26.8314 -79.3850 313° West 222 255 10,000  Level Miami Center
Wed 04:50:37 PM 26.8744 -79.4347 314° West 217 250 10,000 -300 Level Miami Center
Wed 04:51:37 PM 26.9172 -79.4869 313° West 223 257 9,400 -700 Descending Miami Center
Wed 04:52:37 PM 26.9603 -79.5367 314° West 229 264 8,600 -700 Descending Miami Center
Wed 04:53:37 PM 27.0053 -79.5914 313° West 234 269 8,000 -800 Descending Miami Center
Wed 04:54:37 PM 27.0561 -79.6533 313° West 241 277 7,000 -900 Descending Miami Center
Wed 04:55:37 PM 27.1053 -79.7081 315° West 235 270 6,200 -800 Descending Miami Center
Wed 04:56:37 PM 27.1481 -79.7628 311° West 240 276 5,400 -850 Descending Miami Center
Wed 04:57:37 PM 27.1908 -79.8131 314° West 240 276 4,500 -700 Descending Miami Center
Wed 04:58:37 PM 27.2378 -79.8703 313° West 240 276 4,000 -250 Descending Miami Center
Wed 04:59:37 PM 27.2825 -79.9253 312° West 229 264 4,000  Level Miami Center
Wed 05:00:37 PM 27.3147 -79.9797 304° West 219 252 4,000  Level Miami Center
Wed 05:01:37 PM 27.3428 -80.0389 298° West 214 246 4,000  Level Miami Center
Wed 05:02:37 PM 27.3667 -80.0911 297° West 214 246 4,000 -150 Level Miami Center
Wed 05:03:37 PM 27.3986 -80.1575 298° West 214 246 3,700 -550 Descending Miami Center
Wed 05:04:37 PM 27.4264 -80.2192 297° West 221 254 2,900 -900 Descending Miami Center
Wed 05:05:37 PM 27.4522 -80.2783 296° West 221 254 1,900 -900 Descending Miami Center
Wed 05:06:37 PM 27.4717 -80.3306 293° West 215 247 1,100 -300 Descending Miami Center
Wed 05:07:37 PM 27.4725 -80.3819 271° West 189 217 1,300 -400 Climbing Miami Center
Wed 05:08:37 PM 27.4953 -80.3919 339° North 80 92 300 -550 Descending Miami Center
Wed 05:09:37 PM 27.5075 -80.4064 314° West 73 84 200 -100 Descending Miami Center

Login

Don't have an account? Register now (free) for customized features, flight alerts, and more!